sensor_id;sensor_type;location;lat;lon;timestamp;temperature;humidity
1107;DHT22;540;49.448;8.612;2023-03-31T00:00:45;12.50;99.90
1107;DHT22;540;49.448;8.612;2023-03-31T00:03:14;12.30;99.90
1107;DHT22;540;49.448;8.612;2023-03-31T00:05:48;12.40;99.90
1107;DHT22;540;49.448;8.612;2023-03-31T00:08:19;12.30;99.90
1107;DHT22;540;49.448;8.612;2023-03-31T00:10:47;12.40;99.90
1107;DHT22;540;49.448;8.612;2023-03-31T00:13:15;12.10;99.90
1107;DHT22;540;49.448;8.612;2023-03-31T00:15:43;12.30;99.90
1107;DHT22;540;49.448;8.612;2023-03-31T00:18:11;12.40;99.90
1107;DHT22;540;49.448;8.612;2023-03-31T00:20:40;12.30;99.90
1107;DHT22;540;49.448;8.612;2023-03-31T00:23:08;12.40;99.90
1107;DHT22;540;49.448;8.612;2023-03-31T00:25:38;11.90;99.90
1107;DHT22;540;49.448;8.612;2023-03-31T00:28:07;12.30;99.90
1107;DHT22;540;49.448;8.612;2023-03-31T00:30:35;12.60;99.90
1107;DHT22;540;49.448;8.612;2023-03-31T00:33:03;12.20;99.90
1107;DHT22;540;49.448;8.612;2023-03-31T00:35:30;12.50;99.90
1107;DHT22;540;49.448;8.612;2023-03-31T00:38:05;12.30;99.90
1107;DHT22;540;49.448;8.612;2023-03-31T00:40:34;12.20;99.90
1107;DHT22;540;49.448;8.612;2023-03-31T00:43:02;12.30;99.90
1107;DHT22;540;49.448;8.612;2023-03-31T00:45:30;12.70;99.90
1107;DHT22;540;49.448;8.612;2023-03-31T00:48:03;12.40;99.90
1107;DHT22;540;49.448;8.612;2023-03-31T00:50:40;12.20;99.90
1107;DHT22;540;49.448;8.612;2023-03-31T00:53:12;12.50;99.90
1107;DHT22;540;49.448;8.612;2023-03-31T00:55:44;12.40;99.90
1107;DHT22;540;49.448;8.612;2023-03-31T00:58:13;12.30;99.90
1107;DHT22;540;49.448;8.612;2023-03-31T01:00:46;12.40;99.90
1107;DHT22;540;49.448;8.612;2023-03-31T01:03:14;12.40;99.90
1107;DHT22;540;49.448;8.612;2023-03-31T01:05:46;12.40;99.90
1107;DHT22;540;49.448;8.612;2023-03-31T01:08:19;12.40;99.90
1107;DHT22;540;49.448;8.612;2023-03-31T01:10:51;12.20;99.90
1107;DHT22;540;49.448;8.612;2023-03-31T01:13:20;12.00;99.90
1107;DHT22;540;49.448;8.612;2023-03-31T01:15:49;12.40;99.90
1107;DHT22;540;49.448;8.612;2023-03-31T01:18:17;12.40;99.90
1107;DHT22;540;49.448;8.612;2023-03-31T01:21:07;12.30;99.90
1107;DHT22;540;49.448;8.612;2023-03-31T01:24:11;12.50;99.90
1107;DHT22;540;49.448;8.612;2023-03-31T01:26:55;12.30;99.90
1107;DHT22;540;49.448;8.612;2023-03-31T01:29:44;12.20;99.90
1107;DHT22;540;49.448;8.612;2023-03-31T01:32:49;12.50;99.90
1107;DHT22;540;49.448;8.612;2023-03-31T01:35:41;12.20;99.90
1107;DHT22;540;49.448;8.612;2023-03-31T01:41:30;12.50;99.90
1107;DHT22;540;49.448;8.612;2023-03-31T01:44:07;12.50;99.90
1107;DHT22;540;49.448;8.612;2023-03-31T01:46:42;12.50;99.90
1107;DHT22;540;49.448;8.612;2023-03-31T01:49:16;12.50;99.90
1107;DHT22;540;49.448;8.612;2023-03-31T01:51:49;12.60;99.90
1107;DHT22;540;49.448;8.612;2023-03-31T01:54:22;12.30;99.90
1107;DHT22;540;49.448;8.612;2023-03-31T01:56:56;12.40;99.90
1107;DHT22;540;49.448;8.612;2023-03-31T01:59:28;12.30;99.90
1107;DHT22;540;49.448;8.612;2023-03-31T02:01:58;12.50;99.90
1107;DHT22;540;49.448;8.612;2023-03-31T02:04:31;12.30;99.90
1107;DHT22;540;49.448;8.612;2023-03-31T02:07:04;12.30;99.90
1107;DHT22;540;49.448;8.612;2023-03-31T02:09:37;12.40;99.90
1107;DHT22;540;49.448;8.612;2023-03-31T02:12:10;12.10;99.90
1107;DHT22;540;49.448;8.612;2023-03-31T02:14:42;12.40;99.90
1107;DHT22;540;49.448;8.612;2023-03-31T02:17:15;12.30;99.90
1107;DHT22;540;49.448;8.612;2023-03-31T02:19:47;12.30;99.90
1107;DHT22;540;49.448;8.612;2023-03-31T02:22:19;12.50;99.90
1107;DHT22;540;49.448;8.612;2023-03-31T02:24:49;12.30;99.90
1107;DHT22;540;49.448;8.612;2023-03-31T02:27:22;12.50;99.90
1107;DHT22;540;49.448;8.612;2023-03-31T02:29:53;12.30;99.90
1107;DHT22;540;49.448;8.612;2023-03-31T02:32:25;12.50;99.90
1107;DHT22;540;49.448;8.612;2023-03-31T02:34:58;12.20;99.90
1107;DHT22;540;49.448;8.612;2023-03-31T02:37:26;12.30;99.90
1107;DHT22;540;49.448;8.612;2023-03-31T02:39:58;12.30;99.90
1107;DHT22;540;49.448;8.612;2023-03-31T02:42:29;12.50;99.90
1107;DHT22;540;49.448;8.612;2023-03-31T02:45:01;12.20;99.90
1107;DHT22;540;49.448;8.612;2023-03-31T02:47:29;12.30;99.90
1107;DHT22;540;49.448;8.612;2023-03-31T02:49:59;12.50;99.90
1107;DHT22;540;49.448;8.612;2023-03-31T02:52:54;12.40;99.90
1107;DHT22;540;49.448;8.612;2023-03-31T02:55:37;12.40;99.90
1107;DHT22;540;49.448;8.612;2023-03-31T02:58:30;12.50;99.90
1107;DHT22;540;49.448;8.612;2023-03-31T03:01:15;12.50;99.90
1107;DHT22;540;49.448;8.612;2023-03-31T03:03:54;12.40;99.90
1107;DHT22;540;49.448;8.612;2023-03-31T03:06:35;12.30;99.90
1107;DHT22;540;49.448;8.612;2023-03-31T03:09:14;12.20;99.90
1107;DHT22;540;49.448;8.612;2023-03-31T03:11:48;12.50;99.90
1107;DHT22;540;49.448;8.612;2023-03-31T03:14:26;12.50;99.90
1107;DHT22;540;49.448;8.612;2023-03-31T03:16:58;12.30;99.90
1107;DHT22;540;49.448;8.612;2023-03-31T03:19:28;12.60;99.90
1107;DHT22;540;49.448;8.612;2023-03-31T03:21:56;12.40;99.90
1107;DHT22;540;49.448;8.612;2023-03-31T03:24:24;12.50;99.90
1107;DHT22;540;49.448;8.612;2023-03-31T03:26:55;12.30;99.90
1107;DHT22;540;49.448;8.612;2023-03-31T03:29:24;12.30;99.90
1107;DHT22;540;49.448;8.612;2023-03-31T03:31:52;12.20;99.90
1107;DHT22;540;49.448;8.612;2023-03-31T03:34:20;12.40;99.90
1107;DHT22;540;49.448;8.612;2023-03-31T03:36:48;12.30;99.90
1107;DHT22;540;49.448;8.612;2023-03-31T03:39:16;12.50;99.90
1107;DHT22;540;49.448;8.612;2023-03-31T03:41:44;12.40;99.90
1107;DHT22;540;49.448;8.612;2023-03-31T03:44:12;12.20;99.90
1107;DHT22;540;49.448;8.612;2023-03-31T03:46:41;12.50;99.90
1107;DHT22;540;49.448;8.612;2023-03-31T03:49:09;12.20;99.90
1107;DHT22;540;49.448;8.612;2023-03-31T03:51:37;12.20;99.90
1107;DHT22;540;49.448;8.612;2023-03-31T03:54:05;12.60;99.90
1107;DHT22;540;49.448;8.612;2023-03-31T03:56:32;12.20;99.90
1107;DHT22;540;49.448;8.612;2023-03-31T03:59:00;12.30;99.90
1107;DHT22;540;49.448;8.612;2023-03-31T04:01:28;11.70;99.90
1107;DHT22;540;49.448;8.612;2023-03-31T04:03:57;12.60;99.90
1107;DHT22;540;49.448;8.612;2023-03-31T04:06:25;12.30;99.90
1107;DHT22;540;49.448;8.612;2023-03-31T04:08:53;12.20;99.90
1107;DHT22;540;49.448;8.612;2023-03-31T04:11:21;12.40;99.90
1107;DHT22;540;49.448;8.612;2023-03-31T04:13:49;12.30;99.90
1107;DHT22;540;49.448;8.612;2023-03-31T04:16:17;12.20;99.90
1107;DHT22;540;49.448;8.612;2023-03-31T04:18:45;12.20;99.90
1107;DHT22;540;49.448;8.612;2023-03-31T04:21:15;12.50;99.90
1107;DHT22;540;49.448;8.612;2023-03-31T04:23:49;12.30;99.90
1107;DHT22;540;49.448;8.612;2023-03-31T04:26:25;12.40;99.90
1107;DHT22;540;49.448;8.612;2023-03-31T04:28:57;12.40;99.90
1107;DHT22;540;49.448;8.612;2023-03-31T04:31:26;12.20;99.90
1107;DHT22;540;49.448;8.612;2023-03-31T04:33:56;12.20;99.90
1107;DHT22;540;49.448;8.612;2023-03-31T04:36:29;12.10;99.90
1107;DHT22;540;49.448;8.612;2023-03-31T04:38:57;12.10;99.90
1107;DHT22;540;49.448;8.612;2023-03-31T04:41:26;12.30;99.90
1107;DHT22;540;49.448;8.612;2023-03-31T04:43:54;11.90;99.90
1107;DHT22;540;49.448;8.612;2023-03-31T04:46:22;12.30;99.90
1107;DHT22;540;49.448;8.612;2023-03-31T04:48:51;12.10;99.90
1107;DHT22;540;49.448;8.612;2023-03-31T04:51:18;12.10;99.90
1107;DHT22;540;49.448;8.612;2023-03-31T04:53:48;12.30;99.90
1107;DHT22;540;49.448;8.612;2023-03-31T04:56:15;12.10;99.90
1107;DHT22;540;49.448;8.612;2023-03-31T04:58:43;12.30;99.90
1107;DHT22;540;49.448;8.612;2023-03-31T05:01:11;12.00;99.90
1107;DHT22;540;49.448;8.612;2023-03-31T05:03:44;11.90;99.90
1107;DHT22;540;49.448;8.612;2023-03-31T05:06:13;12.10;99.90
1107;DHT22;540;49.448;8.612;2023-03-31T05:08:41;12.10;99.90
1107;DHT22;540;49.448;8.612;2023-03-31T05:11:10;12.30;99.90
1107;DHT22;540;49.448;8.612;2023-03-31T05:13:38;11.90;99.90
1107;DHT22;540;49.448;8.612;2023-03-31T05:16:07;12.00;99.90
1107;DHT22;540;49.448;8.612;2023-03-31T05:18:35;12.00;99.90
1107;DHT22;540;49.448;8.612;2023-03-31T05:21:11;12.10;99.90
1107;DHT22;540;49.448;8.612;2023-03-31T05:23:39;11.90;99.90
1107;DHT22;540;49.448;8.612;2023-03-31T05:26:07;12.00;99.90
1107;DHT22;540;49.448;8.612;2023-03-31T05:28:37;11.60;99.90
1107;DHT22;540;49.448;8.612;2023-03-31T05:31:06;11.50;99.90
1107;DHT22;540;49.448;8.612;2023-03-31T05:33:34;11.30;99.90
1107;DHT22;540;49.448;8.612;2023-03-31T05:36:06;11.40;99.90
1107;DHT22;540;49.448;8.612;2023-03-31T05:38:35;11.30;99.90
1107;DHT22;540;49.448;8.612;2023-03-31T05:41:03;11.10;99.90
1107;DHT22;540;49.448;8.612;2023-03-31T05:43:32;11.50;99.90
1107;DHT22;540;49.448;8.612;2023-03-31T05:46:01;11.20;99.90
1107;DHT22;540;49.448;8.612;2023-03-31T05:48:29;11.10;99.90
1107;DHT22;540;49.448;8.612;2023-03-31T05:50:57;11.20;99.90
1107;DHT22;540;49.448;8.612;2023-03-31T05:53:26;11.00;99.90
1107;DHT22;540;49.448;8.612;2023-03-31T05:55:57;11.10;99.90
1107;DHT22;540;49.448;8.612;2023-03-31T05:58:26;10.90;99.90
1107;DHT22;540;49.448;8.612;2023-03-31T06:01:02;11.00;99.90
1107;DHT22;540;49.448;8.612;2023-03-31T06:03:33;11.10;99.90
1107;DHT22;540;49.448;8.612;2023-03-31T06:06:01;11.20;99.90
1107;DHT22;540;49.448;8.612;2023-03-31T06:08:30;11.20;99.90
1107;DHT22;540;49.448;8.612;2023-03-31T06:10:59;10.80;99.90
1107;DHT22;540;49.448;8.612;2023-03-31T06:13:26;11.10;99.90
1107;DHT22;540;49.448;8.612;2023-03-31T06:15:55;10.90;99.90
1107;DHT22;540;49.448;8.612;2023-03-31T06:18:26;11.10;99.90
1107;DHT22;540;49.448;8.612;2023-03-31T06:20:54;10.80;99.90
1107;DHT22;540;49.448;8.612;2023-03-31T06:23:23;11.10;99.90
1107;DHT22;540;49.448;8.612;2023-03-31T06:25:51;11.00;99.90
1107;DHT22;540;49.448;8.612;2023-03-31T06:28:19;11.00;99.90
1107;DHT22;540;49.448;8.612;2023-03-31T06:30:47;11.10;99.90
1107;DHT22;540;49.448;8.612;2023-03-31T06:33:15;10.80;99.90
1107;DHT22;540;49.448;8.612;2023-03-31T06:35:44;11.00;99.90
1107;DHT22;540;49.448;8.612;2023-03-31T06:38:12;11.10;99.90
1107;DHT22;540;49.448;8.612;2023-03-31T06:40:41;11.20;99.90
1107;DHT22;540;49.448;8.612;2023-03-31T06:43:08;11.10;99.90
1107;DHT22;540;49.448;8.612;2023-03-31T06:45:36;11.20;99.90
1107;DHT22;540;49.448;8.612;2023-03-31T06:48:05;11.30;99.90
1107;DHT22;540;49.448;8.612;2023-03-31T06:50:33;11.20;99.90
1107;DHT22;540;49.448;8.612;2023-03-31T06:53:02;11.20;99.90
1107;DHT22;540;49.448;8.612;2023-03-31T06:55:30;11.30;99.90
1107;DHT22;540;49.448;8.612;2023-03-31T06:57:59;11.30;99.90
1107;DHT22;540;49.448;8.612;2023-03-31T07:00:27;11.80;99.90
1107;DHT22;540;49.448;8.612;2023-03-31T07:02:55;11.60;99.90
1107;DHT22;540;49.448;8.612;2023-03-31T07:05:23;11.60;99.90
1107;DHT22;540;49.448;8.612;2023-03-31T07:07:53;11.30;99.90
1107;DHT22;540;49.448;8.612;2023-03-31T07:10:23;11.60;99.90
1107;DHT22;540;49.448;8.612;2023-03-31T07:12:52;11.70;99.90
1107;DHT22;540;49.448;8.612;2023-03-31T07:15:20;11.40;99.90
1107;DHT22;540;49.448;8.612;2023-03-31T07:17:48;11.60;99.90
1107;DHT22;540;49.448;8.612;2023-03-31T07:20:19;11.00;99.90
1107;DHT22;540;49.448;8.612;2023-03-31T07:22:47;11.70;99.90
1107;DHT22;540;49.448;8.612;2023-03-31T07:25:16;11.30;99.90
1107;DHT22;540;49.448;8.612;2023-03-31T07:27:46;11.70;99.90
1107;DHT22;540;49.448;8.612;2023-03-31T07:30:15;11.80;99.90
1107;DHT22;540;49.448;8.612;2023-03-31T07:32:45;11.70;99.90
1107;DHT22;540;49.448;8.612;2023-03-31T07:35:14;11.70;99.90
1107;DHT22;540;49.448;8.612;2023-03-31T07:37:44;11.70;99.90
1107;DHT22;540;49.448;8.612;2023-03-31T07:40:14;11.90;99.90
1107;DHT22;540;49.448;8.612;2023-03-31T07:42:42;12.00;99.90
1107;DHT22;540;49.448;8.612;2023-03-31T07:45:16;12.20;99.90
1107;DHT22;540;49.448;8.612;2023-03-31T07:47:45;12.00;99.90
1107;DHT22;540;49.448;8.612;2023-03-31T07:50:14;12.10;99.90
1107;DHT22;540;49.448;8.612;2023-03-31T07:52:43;12.40;99.90
1107;DHT22;540;49.448;8.612;2023-03-31T07:55:13;12.60;99.90
1107;DHT22;540;49.448;8.612;2023-03-31T07:57:41;13.00;99.90
1107;DHT22;540;49.448;8.612;2023-03-31T08:00:14;12.90;99.90
1107;DHT22;540;49.448;8.612;2023-03-31T08:02:45;13.00;99.90
1107;DHT22;540;49.448;8.612;2023-03-31T08:05:17;12.80;99.90
1107;DHT22;540;49.448;8.612;2023-03-31T08:07:48;12.60;99.90
1107;DHT22;540;49.448;8.612;2023-03-31T08:10:20;12.40;99.90
1107;DHT22;540;49.448;8.612;2023-03-31T08:12:50;12.40;99.90
1107;DHT22;540;49.448;8.612;2023-03-31T08:15:21;12.30;99.90
1107;DHT22;540;49.448;8.612;2023-03-31T08:17:53;12.20;99.90
1107;DHT22;540;49.448;8.612;2023-03-31T08:20:22;12.00;99.90
1107;DHT22;540;49.448;8.612;2023-03-31T08:22:52;12.10;99.90
1107;DHT22;540;49.448;8.612;2023-03-31T08:25:22;12.00;99.90
1107;DHT22;540;49.448;8.612;2023-03-31T08:27:51;12.20;99.90
1107;DHT22;540;49.448;8.612;2023-03-31T08:30:22;12.30;99.90
1107;DHT22;540;49.448;8.612;2023-03-31T08:32:53;12.50;99.90
1107;DHT22;540;49.448;8.612;2023-03-31T08:35:23;12.40;99.90
1107;DHT22;540;49.448;8.612;2023-03-31T08:37:53;12.30;99.90
1107;DHT22;540;49.448;8.612;2023-03-31T08:40:25;12.70;99.90
1107;DHT22;540;49.448;8.612;2023-03-31T08:42:57;12.70;99.90
1107;DHT22;540;49.448;8.612;2023-03-31T08:45:30;12.20;99.90
1107;DHT22;540;49.448;8.612;2023-03-31T08:48:06;13.30;99.90
1107;DHT22;540;49.448;8.612;2023-03-31T08:50:42;14.10;99.90
1107;DHT22;540;49.448;8.612;2023-03-31T08:53:16;16.10;99.90
1107;DHT22;540;49.448;8.612;2023-03-31T08:55:50;16.80;97.30
1107;DHT22;540;49.448;8.612;2023-03-31T08:58:31;16.30;96.40
1107;DHT22;540;49.448;8.612;2023-03-31T09:01:06;16.20;96.70
1107;DHT22;540;49.448;8.612;2023-03-31T09:03:43;16.10;97.60
1107;DHT22;540;49.448;8.612;2023-03-31T09:06:14;16.90;96.30
1107;DHT22;540;49.448;8.612;2023-03-31T09:08:43;18.00;92.50
1107;DHT22;540;49.448;8.612;2023-03-31T09:11:20;17.70;91.00
1107;DHT22;540;49.448;8.612;2023-03-31T09:14:15;16.50;92.80
1107;DHT22;540;49.448;8.612;2023-03-31T09:16:49;15.30;98.00
1107;DHT22;540;49.448;8.612;2023-03-31T09:19:30;14.40;99.90
1107;DHT22;540;49.448;8.612;2023-03-31T09:22:00;14.00;99.90
1107;DHT22;540;49.448;8.612;2023-03-31T09:24:32;13.70;99.90
1107;DHT22;540;49.448;8.612;2023-03-31T09:27:02;13.00;99.90
1107;DHT22;540;49.448;8.612;2023-03-31T09:29:39;12.70;99.90
1107;DHT22;540;49.448;8.612;2023-03-31T09:32:14;12.50;99.90
1107;DHT22;540;49.448;8.612;2023-03-31T09:34:45;12.40;99.90
1107;DHT22;540;49.448;8.612;2023-03-31T09:37:13;12.60;99.90
1107;DHT22;540;49.448;8.612;2023-03-31T09:39:41;12.20;99.90
1107;DHT22;540;49.448;8.612;2023-03-31T09:42:11;12.20;99.90
1107;DHT22;540;49.448;8.612;2023-03-31T09:44:42;12.00;99.90
1107;DHT22;540;49.448;8.612;2023-03-31T09:47:13;12.10;99.90
1107;DHT22;540;49.448;8.612;2023-03-31T09:49:45;12.30;99.90
1107;DHT22;540;49.448;8.612;2023-03-31T09:52:26;12.30;99.90
1107;DHT22;540;49.448;8.612;2023-03-31T09:54:55;12.20;99.90
1107;DHT22;540;49.448;8.612;2023-03-31T09:57:27;12.30;99.90
1107;DHT22;540;49.448;8.612;2023-03-31T10:00:04;12.10;99.90
1107;DHT22;540;49.448;8.612;2023-03-31T10:02:41;12.10;99.90
1107;DHT22;540;49.448;8.612;2023-03-31T10:05:28;11.80;99.90
1107;DHT22;540;49.448;8.612;2023-03-31T10:08:17;11.80;99.90
1107;DHT22;540;49.448;8.612;2023-03-31T10:10:48;11.90;99.90
1107;DHT22;540;49.448;8.612;2023-03-31T10:13:19;12.40;99.90
1107;DHT22;540;49.448;8.612;2023-03-31T10:15:51;12.60;99.90
1107;DHT22;540;49.448;8.612;2023-03-31T10:18:20;13.10;99.90
1107;DHT22;540;49.448;8.612;2023-03-31T10:20:52;13.50;99.90
1107;DHT22;540;49.448;8.612;2023-03-31T10:23:25;13.70;99.90
1107;DHT22;540;49.448;8.612;2023-03-31T10:25:53;13.80;99.90
1107;DHT22;540;49.448;8.612;2023-03-31T10:28:22;13.90;99.90
1107;DHT22;540;49.448;8.612;2023-03-31T10:30:51;13.90;99.90
1107;DHT22;540;49.448;8.612;2023-03-31T10:33:23;13.70;99.90
1107;DHT22;540;49.448;8.612;2023-03-31T10:35:56;13.50;99.90
1107;DHT22;540;49.448;8.612;2023-03-31T10:38:26;13.20;99.90
1107;DHT22;540;49.448;8.612;2023-03-31T10:40:55;13.60;99.90
1107;DHT22;540;49.448;8.612;2023-03-31T10:43:26;13.10;99.90
1107;DHT22;540;49.448;8.612;2023-03-31T10:45:56;13.30;99.90
1107;DHT22;540;49.448;8.612;2023-03-31T10:48:26;13.40;99.90
1107;DHT22;540;49.448;8.612;2023-03-31T10:50:58;13.90;99.90
1107;DHT22;540;49.448;8.612;2023-03-31T10:53:26;14.10;99.90
1107;DHT22;540;49.448;8.612;2023-03-31T10:56:09;14.00;99.90
1107;DHT22;540;49.448;8.612;2023-03-31T10:58:49;13.80;97.90
1107;DHT22;540;49.448;8.612;2023-03-31T11:01:39;12.70;97.20
1107;DHT22;540;49.448;8.612;2023-03-31T11:04:37;11.90;99.90
1107;DHT22;540;49.448;8.612;2023-03-31T11:07:16;11.00;99.90
1107;DHT22;540;49.448;8.612;2023-03-31T11:10:02;10.80;99.90
1107;DHT22;540;49.448;8.612;2023-03-31T11:12:37;10.70;99.90
1107;DHT22;540;49.448;8.612;2023-03-31T11:15:14;10.80;99.90
1107;DHT22;540;49.448;8.612;2023-03-31T11:17:57;11.40;99.90
1107;DHT22;540;49.448;8.612;2023-03-31T11:20:32;12.00;99.90
1107;DHT22;540;49.448;8.612;2023-03-31T11:23:09;12.40;99.90
1107;DHT22;540;49.448;8.612;2023-03-31T11:25:48;12.60;99.90
1107;DHT22;540;49.448;8.612;2023-03-31T11:28:30;13.10;99.90
1107;DHT22;540;49.448;8.612;2023-03-31T11:31:08;13.20;99.90
1107;DHT22;540;49.448;8.612;2023-03-31T11:33:52;13.60;99.90
1107;DHT22;540;49.448;8.612;2023-03-31T11:36:35;13.30;99.90
1107;DHT22;540;49.448;8.612;2023-03-31T11:39:17;13.30;99.90
1107;DHT22;540;49.448;8.612;2023-03-31T11:41:49;13.30;99.90
1107;DHT22;540;49.448;8.612;2023-03-31T11:44:19;13.00;99.90
1107;DHT22;540;49.448;8.612;2023-03-31T11:46:52;13.70;99.90
1107;DHT22;540;49.448;8.612;2023-03-31T11:49:23;14.00;99.90
1107;DHT22;540;49.448;8.612;2023-03-31T11:51:54;15.00;97.80
1107;DHT22;540;49.448;8.612;2023-03-31T11:54:27;15.10;97.50
1107;DHT22;540;49.448;8.612;2023-03-31T11:57:01;14.90;95.60
1107;DHT22;540;49.448;8.612;2023-03-31T11:59:31;15.30;96.70
1107;DHT22;540;49.448;8.612;2023-03-31T12:02:03;14.80;95.80
1107;DHT22;540;49.448;8.612;2023-03-31T12:04:39;14.40;95.20
1107;DHT22;540;49.448;8.612;2023-03-31T12:07:20;14.30;96.50
1107;DHT22;540;49.448;8.612;2023-03-31T12:09:54;14.30;96.10
1107;DHT22;540;49.448;8.612;2023-03-31T12:12:30;14.30;94.40
1107;DHT22;540;49.448;8.612;2023-03-31T12:15:05;13.90;93.00
1107;DHT22;540;49.448;8.612;2023-03-31T12:17:38;13.90;96.10
1107;DHT22;540;49.448;8.612;2023-03-31T12:20:24;13.90;96.60
1107;DHT22;540;49.448;8.612;2023-03-31T12:22:53;13.90;96.60
1107;DHT22;540;49.448;8.612;2023-03-31T12:25:24;13.90;96.40
1107;DHT22;540;49.448;8.612;2023-03-31T12:27:55;13.90;95.80
1107;DHT22;540;49.448;8.612;2023-03-31T12:30:29;14.00;95.60
1107;DHT22;540;49.448;8.612;2023-03-31T12:33:03;14.20;96.00
1107;DHT22;540;49.448;8.612;2023-03-31T12:35:40;14.30;95.40
1107;DHT22;540;49.448;8.612;2023-03-31T12:38:27;14.20;93.80
1107;DHT22;540;49.448;8.612;2023-03-31T12:41:04;14.50;93.60
1107;DHT22;540;49.448;8.612;2023-03-31T12:44:01;14.60;93.40
1107;DHT22;540;49.448;8.612;2023-03-31T12:46:38;14.50;91.70
1107;DHT22;540;49.448;8.612;2023-03-31T12:49:19;14.60;92.10
1107;DHT22;540;49.448;8.612;2023-03-31T12:51:58;14.50;91.70
1107;DHT22;540;49.448;8.612;2023-03-31T12:55:08;14.70;91.20
1107;DHT22;540;49.448;8.612;2023-03-31T12:57:44;14.70;90.60
1107;DHT22;540;49.448;8.612;2023-03-31T13:00:21;14.60;90.60
1107;DHT22;540;49.448;8.612;2023-03-31T13:02:50;14.70;90.80
1107;DHT22;540;49.448;8.612;2023-03-31T13:05:46;15.00;90.10
1107;DHT22;540;49.448;8.612;2023-03-31T13:08:48;15.00;88.10
1107;DHT22;540;49.448;8.612;2023-03-31T13:11:18;15.20;87.30
1107;DHT22;540;49.448;8.612;2023-03-31T13:13:57;15.50;87.50
1107;DHT22;540;49.448;8.612;2023-03-31T13:16:46;15.50;86.40
1107;DHT22;540;49.448;8.612;2023-03-31T13:19:26;15.40;84.70
1107;DHT22;540;49.448;8.612;2023-03-31T13:21:57;15.40;85.60
1107;DHT22;540;49.448;8.612;2023-03-31T13:24:26;15.50;83.90
1107;DHT22;540;49.448;8.612;2023-03-31T13:26:55;15.30;83.50
1107;DHT22;540;49.448;8.612;2023-03-31T13:29:37;15.50;84.50
1107;DHT22;540;49.448;8.612;2023-03-31T13:32:17;15.50;85.10
1107;DHT22;540;49.448;8.612;2023-03-31T13:34:50;15.40;85.90
1107;DHT22;540;49.448;8.612;2023-03-31T13:37:44;15.60;87.20
1107;DHT22;540;49.448;8.612;2023-03-31T13:40:36;15.70;86.60
1107;DHT22;540;49.448;8.612;2023-03-31T13:43:30;15.50;87.50
1107;DHT22;540;49.448;8.612;2023-03-31T13:49:10;15.00;87.20
1107;DHT22;540;49.448;8.612;2023-03-31T13:51:50;15.00;89.10
1107;DHT22;540;49.448;8.612;2023-03-31T13:54:50;15.50;90.20
1107;DHT22;540;49.448;8.612;2023-03-31T14:00:28;15.10;90.40
1107;DHT22;540;49.448;8.612;2023-03-31T14:03:16;14.80;90.70
1107;DHT22;540;49.448;8.612;2023-03-31T14:05:51;15.00;91.00
1107;DHT22;540;49.448;8.612;2023-03-31T14:08:29;14.90;90.40
1107;DHT22;540;49.448;8.612;2023-03-31T14:11:16;14.90;90.80
1107;DHT22;540;49.448;8.612;2023-03-31T14:13:57;15.10;90.90
1107;DHT22;540;49.448;8.612;2023-03-31T14:16:26;14.80;90.80
1107;DHT22;540;49.448;8.612;2023-03-31T14:19:00;14.20;91.90
1107;DHT22;540;49.448;8.612;2023-03-31T14:21:36;14.20;98.10
1107;DHT22;540;49.448;8.612;2023-03-31T14:24:13;13.60;94.20
1107;DHT22;540;49.448;8.612;2023-03-31T14:26:53;12.50;99.90
1107;DHT22;540;49.448;8.612;2023-03-31T14:29:27;12.00;99.90
1107;DHT22;540;49.448;8.612;2023-03-31T14:32:02;11.90;99.90
1107;DHT22;540;49.448;8.612;2023-03-31T14:37:20;12.20;99.90
1107;DHT22;540;49.448;8.612;2023-03-31T14:39:51;12.50;99.90
1107;DHT22;540;49.448;8.612;2023-03-31T14:42:24;12.60;99.90
1107;DHT22;540;49.448;8.612;2023-03-31T14:44:55;12.70;99.90
1107;DHT22;540;49.448;8.612;2023-03-31T14:47:25;12.80;99.90
1107;DHT22;540;49.448;8.612;2023-03-31T14:49:59;12.80;99.90
1107;DHT22;540;49.448;8.612;2023-03-31T14:52:29;12.90;99.90
1107;DHT22;540;49.448;8.612;2023-03-31T14:54:58;13.10;99.90
1107;DHT22;540;49.448;8.612;2023-03-31T14:57:30;13.40;99.90
1107;DHT22;540;49.448;8.612;2023-03-31T15:00:02;13.20;99.90
1107;DHT22;540;49.448;8.612;2023-03-31T15:02:34;13.10;99.90
1107;DHT22;540;49.448;8.612;2023-03-31T15:05:05;13.40;99.90
1107;DHT22;540;49.448;8.612;2023-03-31T15:07:35;13.50;99.90
1107;DHT22;540;49.448;8.612;2023-03-31T15:10:04;13.60;99.90
1107;DHT22;540;49.448;8.612;2023-03-31T15:12:34;13.30;99.90
1107;DHT22;540;49.448;8.612;2023-03-31T15:15:05;13.40;99.10
1107;DHT22;540;49.448;8.612;2023-03-31T15:17:36;13.20;98.90
1107;DHT22;540;49.448;8.612;2023-03-31T15:20:24;13.40;99.90
1107;DHT22;540;49.448;8.612;2023-03-31T15:22:54;13.10;99.90
1107;DHT22;540;49.448;8.612;2023-03-31T15:25:26;13.20;99.90
1107;DHT22;540;49.448;8.612;2023-03-31T15:27:59;13.10;99.90
1107;DHT22;540;49.448;8.612;2023-03-31T15:30:28;13.40;99.90
1107;DHT22;540;49.448;8.612;2023-03-31T15:32:57;13.10;99.90
1107;DHT22;540;49.448;8.612;2023-03-31T15:35:44;13.30;99.90
1107;DHT22;540;49.448;8.612;2023-03-31T15:38:13;12.70;99.50
1107;DHT22;540;49.448;8.612;2023-03-31T15:40:46;13.60;99.90
1107;DHT22;540;49.448;8.612;2023-03-31T15:43:18;13.30;99.90
1107;DHT22;540;49.448;8.612;2023-03-31T15:45:54;13.40;99.90
1107;DHT22;540;49.448;8.612;2023-03-31T15:48:27;13.10;99.90
1107;DHT22;540;49.448;8.612;2023-03-31T15:50:59;13.30;99.90
1107;DHT22;540;49.448;8.612;2023-03-31T15:53:30;13.30;99.90
1107;DHT22;540;49.448;8.612;2023-03-31T15:55:58;13.00;99.90
1107;DHT22;540;49.448;8.612;2023-03-31T15:58:53;12.90;99.90
1107;DHT22;540;49.448;8.612;2023-03-31T16:01:22;12.90;99.90
1107;DHT22;540;49.448;8.612;2023-03-31T16:03:54;12.80;99.90
1107;DHT22;540;49.448;8.612;2023-03-31T16:06:30;12.40;99.90
1107;DHT22;540;49.448;8.612;2023-03-31T16:09:01;12.30;99.90
1107;DHT22;540;49.448;8.612;2023-03-31T16:11:35;12.50;99.90
1107;DHT22;540;49.448;8.612;2023-03-31T16:14:11;12.20;99.90
1107;DHT22;540;49.448;8.612;2023-03-31T16:16:45;12.30;99.90
1107;DHT22;540;49.448;8.612;2023-03-31T16:19:14;12.50;99.90
1107;DHT22;540;49.448;8.612;2023-03-31T16:21:44;12.30;99.90
1107;DHT22;540;49.448;8.612;2023-03-31T16:24:15;12.30;99.90
1107;DHT22;540;49.448;8.612;2023-03-31T16:26:43;12.50;99.90
1107;DHT22;540;49.448;8.612;2023-03-31T16:29:20;12.20;99.90
1107;DHT22;540;49.448;8.612;2023-03-31T16:31:48;12.60;99.90
1107;DHT22;540;49.448;8.612;2023-03-31T16:34:16;12.30;99.90
1107;DHT22;540;49.448;8.612;2023-03-31T16:36:44;12.70;99.90
1107;DHT22;540;49.448;8.612;2023-03-31T16:39:13;12.40;99.90
1107;DHT22;540;49.448;8.612;2023-03-31T16:41:41;12.50;99.90
1107;DHT22;540;49.448;8.612;2023-03-31T16:44:08;12.40;99.90
1107;DHT22;540;49.448;8.612;2023-03-31T16:46:37;12.30;99.90
1107;DHT22;540;49.448;8.612;2023-03-31T16:49:05;12.60;99.90
1107;DHT22;540;49.448;8.612;2023-03-31T16:51:33;12.60;99.90
1107;DHT22;540;49.448;8.612;2023-03-31T16:54:01;12.30;99.90
1107;DHT22;540;49.448;8.612;2023-03-31T16:56:29;12.40;99.90
1107;DHT22;540;49.448;8.612;2023-03-31T16:58:57;12.40;99.90
1107;DHT22;540;49.448;8.612;2023-03-31T17:01:24;12.20;99.90
1107;DHT22;540;49.448;8.612;2023-03-31T17:03:54;12.40;99.90
1107;DHT22;540;49.448;8.612;2023-03-31T17:06:22;12.40;99.90